首页
METAR-TAF:

METAR-TAF

机场 :

St. Catharines, 安大略省, 加拿大

纬度: 43-12N, 经度: 079-10W, 海拔: 98米

当前天气观测

该预报发布于16分钟前的20:00 UTC
风速12节,风向西北,有时为18节阵风
温度 25°C
湿度 44%
气压 1011 hPa
能見度: 24.1公里
散云层高于7800英尺

METAR: CYSN 062000Z 32012G18KT 15SM SCT078 25/12 A2986 RMK AC4 SLP112 DENSITY ALT 1700FT

时间: 16:16 (20:16 UTC)

预报

该预报发布于38分钟前的19:38 UTC
预报有效从06日的 20点(UTC)到 07日的 01点(UTC)
风速12节,风向西
能見度: 10公里
散云层高于8000英尺
短暂存在
从 06日的 20点(UTC)到 06日的 21点(UTC)
风速15节,风向西转西北,有时为25节阵风
能見度: 10公里
多云层高于8000英尺
小阵雨
从 06日的 2100点(UTC)
风速12节,风向西北,有时为22节阵风
能見度: 10公里
散云层高于6000英尺

TAF: CYSN 061938Z 0620/0701 26012KT P6SM SCT080 TEMPO 0620/0621 30015G25KT P6SM -SHRA BKN080 FM062100 31012G22KT P6SM SCT060 RMK NXT FCST WILL BE ISSUED AT 071245Z

超过4000个机场的气象观测和天气预报(METAR&TAF报告)。

可查询的气象台以黄色和红色小点在地图上表示。

将鼠标移到小点上方,可查看气象台名称。

然后点击查看天气观测和预报。

如需切换地图:点击带黑十字的绿色按钮放大地图;点击带横线的绿色按钮缩小地图;或者点击绿色箭头查看邻近地区的地图。


METAR-TAF: